createdAt,value
2022-11-24T00:01:31.345Z,35.70
2022-11-24T00:04:03.220Z,34.40
2022-11-24T00:06:34.426Z,33.10
2022-11-24T00:09:04.787Z,39.70
2022-11-24T00:11:36.717Z,34.40
2022-11-24T00:14:06.499Z,34.80
2022-11-24T00:16:37.072Z,34.10
2022-11-24T00:19:09.555Z,35.30
2022-11-24T00:21:39.236Z,36.70
2022-11-24T00:24:07.937Z,37.70
2022-11-24T00:26:40.021Z,37.10
2022-11-24T00:29:09.934Z,34.90
2022-11-24T00:31:40.719Z,33.80
2022-11-24T00:34:14.181Z,34.80
2022-11-24T00:36:43.273Z,33.40
2022-11-24T00:39:13.813Z,36.00
2022-11-24T00:41:43.902Z,35.90
2022-11-24T00:44:24.952Z,36.10
2022-11-24T00:46:53.714Z,38.30
2022-11-24T00:49:22.345Z,29.20
2022-11-24T00:51:51.498Z,38.20
2022-11-24T00:54:20.168Z,38.90
2022-11-24T00:56:48.749Z,37.10
2022-11-24T00:59:17.326Z,36.10
2022-11-24T01:01:45.892Z,41.50
2022-11-24T01:04:15.377Z,37.40
2022-11-24T01:06:43.901Z,39.30
2022-11-24T01:09:12.487Z,37.10
2022-11-24T01:11:59.909Z,38.40
2022-11-24T01:14:29.609Z,39.30
2022-11-24T01:16:58.612Z,37.20
2022-11-24T01:19:27.390Z,37.40
2022-11-24T01:21:55.925Z,35.50
2022-11-24T01:24:24.579Z,35.10
2022-11-24T01:26:53.117Z,36.00
2022-11-24T01:29:21.806Z,35.30
2022-11-24T01:31:50.310Z,34.50
2022-11-24T01:34:18.914Z,33.70
2022-11-24T01:36:47.495Z,32.40
2022-11-24T01:39:16.151Z,36.00
2022-11-24T01:41:44.777Z,33.50
2022-11-24T01:44:42.781Z,36.20
2022-11-24T01:47:35.715Z,32.50
2022-11-24T01:50:06.175Z,35.20
2022-11-24T01:52:47.358Z,36.10
2022-11-24T01:55:20.986Z,36.00
2022-11-24T01:57:58.069Z,36.40
2022-11-24T02:00:26.742Z,34.70
2022-11-24T02:02:55.592Z,37.90
2022-11-24T02:05:35.672Z,34.50
2022-11-24T02:08:06.621Z,34.00
2022-11-24T02:10:36.493Z,37.70
2022-11-24T02:13:05.696Z,35.30
2022-11-24T02:15:35.741Z,33.70
2022-11-24T02:18:04.630Z,36.30
2022-11-24T02:20:34.591Z,35.40
2022-11-24T02:23:28.829Z,32.40
2022-11-24T02:26:11.403Z,35.80
2022-11-24T02:28:40.379Z,36.80
2022-11-24T02:31:09.612Z,33.70
2022-11-24T02:33:38.559Z,35.10
2022-11-24T02:36:07.370Z,36.80
2022-11-24T02:38:36.551Z,37.60
2022-11-24T02:41:13.437Z,38.30
2022-11-24T02:43:51.092Z,38.40
2022-11-24T02:46:19.505Z,31.50
2022-11-24T02:48:48.304Z,40.10
2022-11-24T02:51:16.795Z,39.60
2022-11-24T02:53:45.465Z,38.80
2022-11-24T02:56:13.879Z,36.90
2022-11-24T02:58:42.361Z,41.00
2022-11-24T03:01:10.869Z,39.50
2022-11-24T03:03:39.576Z,37.40
2022-11-24T03:06:07.975Z,38.10
2022-11-24T03:08:36.325Z,39.50
2022-11-24T03:11:05.012Z,37.60
2022-11-24T03:13:33.964Z,37.40
2022-11-24T03:16:02.522Z,42.40
2022-11-24T03:18:30.949Z,36.30
2022-11-24T03:21:00.462Z,40.40
2022-11-24T03:23:29.007Z,38.80
2022-11-24T03:26:08.346Z,38.50
2022-11-24T03:28:37.130Z,34.40
2022-11-24T03:31:06.653Z,33.60
2022-11-24T03:33:35.962Z,35.70
2022-11-24T03:36:06.072Z,36.40
2022-11-24T03:38:34.552Z,36.40
2022-11-24T03:41:03.029Z,36.80
2022-11-24T03:43:31.521Z,33.40
2022-11-24T03:46:00.034Z,37.30
2022-11-24T03:48:28.683Z,36.30
2022-11-24T03:51:01.373Z,36.40
2022-11-24T03:53:32.018Z,33.70
2022-11-24T03:56:02.388Z,34.80
2022-11-24T03:58:31.417Z,33.00
2022-11-24T04:00:59.918Z,31.50
2022-11-24T04:03:28.783Z,31.20
2022-11-24T04:05:57.258Z,32.90
2022-11-24T04:08:25.728Z,34.80
2022-11-24T04:10:55.018Z,31.90
2022-11-24T04:13:26.281Z,38.10
2022-11-24T04:15:54.889Z,34.60
2022-11-24T04:18:23.465Z,34.70
2022-11-24T04:20:52.606Z,33.80
2022-11-24T04:23:20.992Z,33.00
2022-11-24T04:25:50.186Z,34.60
2022-11-24T04:28:19.299Z,35.10
2022-11-24T04:30:47.805Z,32.10
2022-11-24T04:33:16.185Z,34.70
2022-11-24T04:35:44.628Z,32.40
2022-11-24T04:38:12.976Z,34.40
2022-11-24T04:41:04.906Z,33.60
2022-11-24T04:44:01.910Z,32.60
2022-11-24T04:46:30.333Z,33.90
2022-11-24T04:48:58.880Z,34.20
2022-11-24T04:51:27.329Z,37.00
2022-11-24T04:53:55.809Z,33.90
2022-11-24T04:56:24.237Z,34.50
2022-11-24T04:58:52.637Z,36.80
2022-11-24T05:01:21.029Z,36.50
2022-11-24T05:03:49.498Z,34.70
2022-11-24T05:06:17.915Z,34.60
2022-11-24T05:08:53.200Z,37.50
2022-11-24T05:11:21.662Z,32.80
2022-11-24T05:13:50.059Z,31.40
2022-11-24T05:16:18.627Z,36.50
2022-11-24T05:18:47.042Z,34.10
2022-11-24T05:21:15.550Z,33.60
2022-11-24T05:23:43.930Z,32.70
2022-11-24T05:26:12.427Z,32.60
2022-11-24T05:28:40.825Z,35.30
2022-11-24T05:31:09.358Z,36.40
2022-11-24T05:33:38.577Z,34.80
2022-11-24T05:36:07.483Z,33.60
2022-11-24T05:38:35.952Z,37.10
2022-11-24T05:41:06.303Z,34.40
2022-11-24T05:43:53.684Z,34.90
2022-11-24T05:46:22.130Z,34.90
2022-11-24T05:48:50.599Z,34.10
2022-11-24T05:51:19.133Z,35.70
2022-11-24T05:53:47.497Z,32.80
2022-11-24T05:56:15.950Z,30.60
2022-11-24T05:58:44.391Z,34.30
2022-11-24T06:01:12.768Z,34.10
2022-11-24T06:03:41.838Z,37.10
2022-11-24T06:06:11.074Z,34.60
2022-11-24T06:08:39.670Z,34.40
2022-11-24T06:11:19.942Z,33.20
2022-11-24T06:13:51.745Z,36.40
2022-11-24T06:16:20.642Z,31.90
2022-11-24T06:18:49.147Z,31.80
2022-11-24T06:21:17.618Z,33.70
2022-11-24T06:23:49.633Z,34.10
2022-11-24T06:26:21.086Z,35.20
2022-11-24T06:28:49.467Z,38.20
2022-11-24T06:31:18.025Z,33.60
2022-11-24T06:33:47.236Z,35.30
2022-11-24T06:36:15.838Z,34.20
2022-11-24T06:38:44.267Z,39.00
2022-11-24T06:41:15.010Z,36.30
2022-11-24T06:43:43.544Z,31.50
2022-11-24T06:46:12.668Z,29.80
2022-11-24T06:48:41.267Z,31.70
2022-11-24T06:51:13.415Z,32.70
2022-11-24T06:53:41.876Z,35.30
2022-11-24T06:56:16.163Z,32.10
2022-11-24T06:58:47.822Z,36.60
2022-11-24T07:01:21.999Z,37.40
2022-11-24T07:03:51.703Z,34.50
2022-11-24T07:06:21.609Z,36.40
2022-11-24T07:08:51.174Z,31.50
2022-11-24T07:11:22.882Z,35.60
2022-11-24T07:13:55.130Z,35.40
2022-11-24T07:16:29.058Z,32.50
2022-11-24T07:18:58.330Z,34.90
2022-11-24T07:21:28.138Z,31.20
2022-11-24T07:23:58.075Z,32.30
2022-11-24T07:26:27.314Z,29.30
2022-11-24T07:28:55.879Z,29.70
2022-11-24T07:31:27.311Z,33.30
2022-11-24T07:33:55.949Z,33.80
2022-11-24T07:36:25.189Z,32.50
2022-11-24T07:38:53.588Z,35.40
2022-11-24T07:41:22.394Z,36.00
2022-11-24T07:43:51.997Z,38.40
2022-11-24T07:46:21.014Z,35.90
2022-11-24T07:48:49.567Z,38.30
2022-11-24T07:51:18.009Z,39.90
2022-11-24T07:53:46.649Z,39.80
2022-11-24T07:56:15.298Z,39.80
2022-11-24T07:58:45.966Z,36.90
2022-11-24T08:01:18.496Z,34.00
2022-11-24T08:03:47.658Z,30.80
2022-11-24T08:06:25.067Z,35.80
2022-11-24T08:08:57.317Z,36.20
2022-11-24T08:11:26.579Z,35.60
2022-11-24T08:13:55.562Z,31.00
2022-11-24T08:16:24.315Z,33.70
2022-11-24T08:18:55.038Z,35.00
2022-11-24T08:21:24.307Z,31.20
2022-11-24T08:23:57.066Z,32.30
2022-11-24T08:26:26.420Z,36.20
2022-11-24T08:28:58.028Z,33.60
2022-11-24T08:31:33.788Z,33.80
2022-11-24T08:34:04.046Z,34.40
2022-11-24T08:36:33.532Z,35.40
2022-11-24T08:39:03.058Z,33.70
2022-11-24T08:41:31.831Z,32.70
2022-11-24T08:44:00.318Z,32.10
2022-11-24T08:46:29.035Z,28.20
2022-11-24T08:48:57.548Z,33.90
2022-11-24T08:51:27.470Z,30.90
2022-11-24T08:54:01.586Z,30.10
2022-11-24T08:56:32.785Z,34.60
2022-11-24T08:59:01.231Z,34.40
2022-11-24T09:01:30.071Z,32.70
2022-11-24T09:03:58.738Z,32.20
2022-11-24T09:06:32.521Z,34.10
2022-11-24T09:09:01.118Z,29.50
2022-11-24T09:11:29.637Z,35.00
2022-11-24T09:13:58.329Z,34.60
2022-11-24T09:16:29.261Z,31.50
2022-11-24T09:19:00.453Z,31.50
2022-11-24T09:21:29.903Z,34.60
2022-11-24T09:23:58.722Z,33.10
2022-11-24T09:26:30.030Z,32.60
2022-11-24T09:29:00.306Z,35.30
2022-11-24T09:31:34.784Z,25.00
2022-11-24T09:34:06.109Z,31.50
2022-11-24T09:36:34.622Z,33.80
2022-11-24T09:39:03.895Z,30.80
2022-11-24T09:42:09.942Z,32.90
2022-11-24T09:45:10.091Z,31.90
2022-11-24T09:47:51.459Z,33.10
2022-11-24T09:50:26.031Z,31.50
2022-11-24T09:53:04.034Z,31.90
2022-11-24T09:55:55.243Z,31.60
2022-11-24T09:58:57.456Z,29.30
2022-11-24T10:01:37.475Z,30.70
2022-11-24T10:04:16.883Z,34.00
2022-11-24T10:07:04.265Z,36.00
2022-11-24T10:09:44.424Z,35.80
2022-11-24T10:12:54.254Z,36.90
2022-11-24T10:15:45.851Z,36.70
2022-11-24T10:18:49.519Z,33.90
2022-11-24T10:21:36.186Z,37.50
2022-11-24T10:24:43.377Z,38.80
2022-11-24T10:27:19.101Z,39.80
2022-11-24T10:29:51.924Z,37.90
2022-11-24T10:32:44.377Z,35.80
2022-11-24T10:35:17.661Z,38.10
2022-11-24T10:38:18.339Z,39.20
2022-11-24T10:40:57.508Z,40.30
2022-11-24T10:43:30.709Z,39.20
2022-11-24T10:46:24.607Z,41.00
2022-11-24T10:49:05.345Z,38.30
2022-11-24T10:51:42.430Z,38.30
2022-11-24T10:54:17.035Z,39.30
2022-11-24T10:56:47.734Z,38.50
2022-11-24T10:59:24.861Z,35.00
2022-11-24T11:01:54.122Z,37.40
2022-11-24T11:04:35.364Z,36.00
2022-11-24T11:07:23.210Z,39.20
2022-11-24T11:10:11.918Z,33.00
2022-11-24T11:12:44.590Z,32.40
2022-11-24T11:15:32.264Z,32.20
2022-11-24T11:18:01.647Z,34.10
2022-11-24T11:20:32.965Z,36.00
2022-11-24T11:23:14.412Z,34.30
2022-11-24T11:25:43.970Z,37.30
2022-11-24T11:28:18.877Z,34.10
2022-11-24T11:31:21.703Z,35.20
2022-11-24T11:34:07.361Z,36.70
2022-11-24T11:36:51.871Z,36.90
2022-11-24T11:39:36.108Z,37.70
2022-11-24T11:44:50.205Z,37.40
2022-11-24T11:47:33.804Z,35.50
2022-11-24T11:50:03.012Z,38.80
2022-11-24T11:52:48.196Z,38.00
2022-11-24T11:55:35.357Z,39.10
2022-11-24T11:58:36.326Z,37.60
2022-11-24T12:01:57.480Z,41.90
2022-11-24T12:04:58.584Z,36.50
2022-11-24T12:07:45.800Z,37.50
2022-11-24T12:10:41.866Z,39.40
2022-11-24T12:13:22.278Z,41.30
2022-11-24T12:15:55.182Z,40.00
2022-11-24T12:19:30.728Z,40.40
2022-11-24T12:22:21.948Z,40.00
2022-11-24T12:25:01.053Z,39.30
2022-11-24T12:28:04.252Z,38.10
2022-11-24T12:30:58.428Z,40.50
2022-11-24T12:34:01.333Z,37.10
2022-11-24T12:36:52.809Z,39.70
2022-11-24T12:39:28.191Z,38.00
2022-11-24T12:42:12.257Z,36.40
2022-11-24T12:44:44.652Z,42.10
2022-11-24T12:47:25.707Z,39.70
2022-11-24T12:50:13.607Z,41.00
2022-11-24T12:52:48.426Z,41.60
2022-11-24T12:55:23.529Z,42.80
2022-11-24T12:58:13.607Z,41.10
2022-11-24T13:01:14.633Z,40.60
2022-11-24T13:04:10.940Z,43.90
2022-11-24T13:07:18.429Z,41.20
2022-11-24T13:10:46.514Z,39.90
2022-11-24T13:13:14.959Z,39.90
2022-11-24T13:16:34.777Z,40.30
2022-11-24T13:19:14.116Z,38.60
2022-11-24T13:21:53.689Z,39.50
2022-11-24T13:24:25.979Z,41.60
2022-11-24T13:27:16.243Z,40.20
2022-11-24T13:29:46.909Z,42.80
2022-11-24T13:32:15.860Z,41.70
2022-11-24T13:34:46.017Z,43.10
2022-11-24T13:37:29.080Z,40.80
2022-11-24T13:40:13.735Z,39.90
2022-11-24T13:43:01.708Z,42.10
2022-11-24T13:45:55.032Z,41.60
2022-11-24T13:48:47.158Z,42.30
2022-11-24T13:51:23.745Z,44.80
2022-11-24T13:53:55.221Z,60.90
2022-11-24T13:56:26.760Z,46.50
2022-11-24T13:59:17.793Z,42.70
2022-11-24T14:01:56.473Z,42.50
2022-11-24T14:07:17.190Z,39.60
2022-11-24T14:09:50.347Z,41.70
2022-11-24T14:12:21.764Z,41.90
2022-11-24T14:14:52.782Z,43.70
2022-11-24T14:17:23.831Z,39.80
2022-11-24T14:19:54.416Z,37.60
2022-11-24T14:22:41.692Z,39.40
2022-11-24T14:25:30.521Z,41.30
2022-11-24T14:28:00.739Z,40.80
2022-11-24T14:30:29.332Z,45.20
2022-11-24T14:33:00.086Z,41.30
2022-11-24T14:35:30.179Z,41.10
2022-11-24T14:38:00.270Z,43.80
2022-11-24T14:40:50.478Z,43.50
2022-11-24T14:43:28.458Z,43.60
2022-11-24T14:46:10.202Z,42.80
2022-11-24T14:48:38.674Z,44.40
2022-11-24T14:51:25.195Z,42.40
2022-11-24T14:53:58.404Z,43.50
2022-11-24T14:56:34.774Z,42.70
2022-11-24T14:59:04.805Z,38.80
2022-11-24T15:01:35.125Z,42.80
2022-11-24T15:04:32.514Z,42.10
2022-11-24T15:07:26.116Z,44.00
2022-11-24T15:10:00.348Z,43.10
2022-11-24T15:12:34.925Z,42.20
2022-11-24T15:15:15.278Z,42.50
2022-11-24T15:18:01.643Z,43.20
2022-11-24T15:20:35.639Z,42.80
2022-11-24T15:25:56.591Z,42.20
2022-11-24T15:28:28.224Z,42.60
2022-11-24T15:31:01.543Z,46.20
2022-11-24T15:33:31.316Z,43.30
2022-11-24T15:36:00.716Z,41.60
2022-11-24T15:38:29.099Z,45.00
2022-11-24T15:41:00.471Z,43.40
2022-11-24T15:43:40.720Z,50.60
2022-11-24T15:46:10.210Z,45.50
2022-11-24T15:48:38.792Z,44.80
2022-11-24T15:51:11.725Z,42.60
2022-11-24T15:53:44.313Z,40.20
2022-11-24T15:56:19.541Z,40.80
2022-11-24T15:58:48.874Z,40.70
2022-11-24T16:01:17.405Z,43.90
2022-11-24T16:03:47.831Z,42.60
2022-11-24T16:06:24.524Z,55.50
2022-11-24T16:08:54.663Z,64.60
2022-11-24T16:11:23.854Z,64.60
2022-11-24T16:13:54.351Z,44.40
2022-11-24T16:16:25.635Z,43.30
2022-11-24T16:18:54.237Z,42.00
2022-11-24T16:21:23.496Z,41.70
2022-11-24T16:23:52.188Z,43.40
2022-11-24T16:26:21.016Z,44.70
2022-11-24T16:28:49.621Z,43.10
2022-11-24T16:31:20.152Z,43.40
2022-11-24T16:33:48.604Z,43.30
2022-11-24T16:36:17.066Z,44.70
2022-11-24T16:38:46.151Z,44.00
2022-11-24T16:41:15.061Z,46.30
2022-11-24T16:43:43.620Z,44.90
2022-11-24T16:46:22.291Z,45.00
2022-11-24T16:48:53.708Z,42.50
2022-11-24T16:51:24.199Z,49.00
2022-11-24T16:54:02.485Z,52.20
2022-11-24T16:56:32.348Z,50.30
2022-11-24T16:59:01.896Z,48.40
2022-11-24T17:01:30.728Z,45.00
2022-11-24T17:04:00.473Z,42.50
2022-11-24T17:06:29.774Z,46.40
2022-11-24T17:08:58.622Z,46.10
2022-11-24T17:11:28.975Z,45.80
2022-11-24T17:14:00.665Z,44.40
2022-11-24T17:16:30.675Z,45.20
2022-11-24T17:19:00.416Z,43.30
2022-11-24T17:21:29.163Z,43.10
2022-11-24T17:24:01.563Z,43.90
2022-11-24T17:26:30.417Z,42.70
2022-11-24T17:28:59.987Z,44.10
2022-11-24T17:31:37.856Z,40.90
2022-11-24T17:34:08.002Z,46.50
2022-11-24T17:39:14.494Z,43.30
2022-11-24T17:41:43.517Z,42.00
2022-11-24T17:44:13.635Z,47.70
2022-11-24T17:46:43.723Z,45.20
2022-11-24T17:49:16.015Z,44.20
2022-11-24T17:51:46.702Z,43.60
2022-11-24T17:57:07.106Z,42.30
2022-11-24T17:59:38.275Z,44.90
2022-11-24T18:02:10.646Z,39.40
2022-11-24T18:04:39.943Z,46.40
2022-11-24T18:07:08.611Z,52.70
2022-11-24T18:09:38.778Z,45.40
2022-11-24T18:12:08.287Z,43.60
2022-11-24T18:14:39.353Z,41.60
2022-11-24T18:17:11.256Z,45.20
2022-11-24T18:19:40.786Z,43.70
2022-11-24T18:22:10.241Z,43.80
2022-11-24T18:24:39.676Z,44.90
2022-11-24T18:27:09.295Z,43.00
2022-11-24T18:29:38.573Z,39.70
2022-11-24T18:32:08.925Z,43.70
2022-11-24T18:34:40.831Z,49.30
2022-11-24T18:37:14.113Z,49.90
2022-11-24T18:39:43.783Z,46.90
2022-11-24T18:42:18.561Z,47.90
2022-11-24T18:44:52.566Z,44.80
2022-11-24T18:47:23.840Z,43.80
2022-11-24T18:49:52.995Z,45.50
2022-11-24T18:52:23.852Z,44.20
2022-11-24T18:54:54.830Z,56.60
2022-11-24T18:57:24.182Z,50.40
2022-11-24T18:59:54.208Z,51.10
2022-11-24T19:02:24.894Z,46.80
2022-11-24T19:04:54.582Z,48.10
2022-11-24T19:07:23.603Z,48.90
2022-11-24T19:09:53.107Z,54.10
2022-11-24T19:12:22.860Z,60.50
2022-11-24T19:14:51.997Z,67.90
2022-11-24T19:17:26.169Z,67.40
2022-11-24T19:19:55.775Z,60.50
2022-11-24T19:22:26.551Z,61.80
2022-11-24T19:24:56.387Z,55.20
2022-11-24T19:27:26.093Z,59.20
2022-11-24T19:29:55.883Z,57.50
2022-11-24T19:32:26.080Z,54.80
2022-11-24T19:34:55.846Z,50.90
2022-11-24T19:37:25.854Z,50.00
2022-11-24T19:39:56.677Z,50.00
2022-11-24T19:42:28.867Z,58.60
2022-11-24T19:45:04.032Z,59.50
2022-11-24T19:47:34.706Z,58.10
2022-11-24T19:50:10.212Z,53.50
2022-11-24T19:52:39.750Z,52.60
2022-11-24T19:55:09.698Z,50.50
2022-11-24T19:57:40.430Z,47.70
2022-11-24T20:00:15.445Z,49.40
2022-11-24T20:02:52.242Z,50.30
2022-11-24T20:05:28.413Z,48.20
2022-11-24T20:07:58.398Z,47.30
2022-11-24T20:23:00.290Z,44.00
2022-11-24T20:25:29.775Z,72.60
2022-11-24T20:31:11.178Z,48.00
2022-11-24T20:33:47.344Z,51.10
2022-11-24T20:42:40.623Z,43.50
2022-11-24T20:45:16.720Z,44.10
2022-11-24T20:47:51.292Z,43.80
2022-11-24T20:50:27.347Z,45.70
2022-11-24T20:53:01.916Z,46.10
2022-11-24T20:55:37.010Z,48.10
2022-11-24T21:00:40.605Z,44.10
2022-11-24T21:03:16.955Z,47.20
2022-11-24T21:05:56.794Z,43.70
2022-11-24T21:08:25.953Z,53.50
2022-11-24T21:11:02.822Z,48.30
2022-11-24T21:13:35.853Z,50.10
2022-11-24T21:16:15.413Z,65.60
2022-11-24T21:18:52.746Z,60.50
2022-11-24T21:21:34.753Z,46.50
2022-11-24T21:24:15.240Z,55.80
2022-11-24T21:26:48.547Z,55.30
2022-11-24T21:29:19.628Z,49.70
2022-11-24T21:31:53.122Z,54.60
2022-11-24T21:34:28.412Z,50.70
2022-11-24T21:36:56.924Z,52.20
2022-11-24T21:39:25.455Z,50.00
2022-11-24T21:41:54.144Z,48.70
2022-11-24T21:44:39.185Z,50.00
2022-11-24T21:47:07.553Z,47.80
2022-11-24T21:49:36.132Z,43.70
2022-11-24T21:52:04.793Z,43.50
2022-11-24T21:54:35.887Z,45.40
2022-11-24T21:57:06.026Z,43.20
2022-11-24T21:59:35.742Z,45.70
2022-11-24T22:02:08.770Z,44.20
2022-11-24T22:04:38.707Z,46.20
2022-11-24T22:07:07.329Z,46.40
2022-11-24T22:09:35.741Z,46.50
2022-11-24T22:12:04.475Z,44.60
2022-11-24T22:14:36.178Z,47.00
2022-11-24T22:17:08.988Z,50.40
2022-11-24T22:19:37.464Z,45.90
2022-11-24T22:22:05.998Z,48.70
2022-11-24T22:24:34.467Z,48.90
2022-11-24T22:27:03.400Z,47.30
2022-11-24T22:29:31.847Z,46.70
2022-11-24T22:32:00.241Z,50.40
2022-11-24T22:34:29.936Z,47.30
2022-11-24T22:36:58.442Z,48.60
2022-11-24T22:39:26.881Z,47.90
2022-11-24T22:41:55.347Z,48.70
2022-11-24T22:44:49.445Z,49.70
2022-11-24T22:47:17.865Z,54.60
2022-11-24T22:49:46.217Z,49.00
2022-11-24T22:52:15.455Z,49.70
2022-11-24T22:54:43.888Z,52.00
2022-11-24T22:57:12.255Z,52.80
2022-11-24T22:59:40.612Z,51.70
2022-11-24T23:02:09.181Z,47.70
2022-11-24T23:04:37.752Z,49.10
2022-11-24T23:07:06.350Z,49.10
2022-11-24T23:09:34.683Z,50.90
2022-11-24T23:12:03.152Z,48.00
2022-11-24T23:14:31.571Z,52.30
2022-11-24T23:17:01.058Z,51.60
2022-11-24T23:19:29.428Z,49.80
2022-11-24T23:21:57.874Z,48.50
2022-11-24T23:24:26.230Z,52.60
2022-11-24T23:26:54.575Z,52.00
2022-11-24T23:29:22.955Z,49.50
2022-11-24T23:31:51.419Z,52.30
2022-11-24T23:34:19.828Z,49.60
2022-11-24T23:36:48.264Z,51.90
2022-11-24T23:39:16.775Z,50.70
2022-11-24T23:41:45.214Z,50.40
2022-11-24T23:44:39.339Z,51.70
2022-11-24T23:47:07.702Z,51.40
2022-11-24T23:49:36.208Z,53.00
2022-11-24T23:52:04.934Z,54.70
2022-11-24T23:54:33.544Z,55.40
2022-11-24T23:57:02.182Z,54.10
2022-11-24T23:59:30.529Z,55.50
